createdAt,value
2023-03-13T02:03:13.719Z,9.18
2023-03-13T02:05:44.116Z,10.57
2023-03-13T02:08:13.932Z,6.82
2023-03-13T02:10:47.584Z,8.07
2023-03-13T02:13:15.452Z,10.53
2023-03-13T02:15:42.116Z,9.38
2023-03-13T02:18:08.722Z,10.75
2023-03-13T02:20:35.290Z,7.00
2023-03-13T02:23:16.038Z,6.28
2023-03-13T02:28:19.442Z,8.80
2023-03-13T02:30:47.350Z,6.40
2023-03-13T02:33:14.458Z,10.38
2023-03-13T02:35:41.879Z,8.07
2023-03-13T02:38:10.402Z,9.88
2023-03-13T02:40:39.526Z,8.18
2023-03-13T02:43:10.852Z,9.90
2023-03-13T02:45:37.439Z,7.10
2023-03-13T02:48:05.193Z,8.80
2023-03-13T02:50:35.614Z,7.65
2023-03-13T02:53:04.207Z,9.65
2023-03-13T02:55:36.641Z,8.85
2023-03-13T02:58:03.168Z,8.02
2023-03-13T03:00:29.689Z,7.90
2023-03-13T03:02:56.422Z,8.57
2023-03-13T03:05:23.087Z,7.95
2023-03-13T03:07:52.666Z,8.55
2023-03-13T03:10:20.055Z,10.38
2023-03-13T03:12:46.537Z,9.82
2023-03-13T03:15:13.223Z,10.90
2023-03-13T03:17:39.679Z,7.03
2023-03-13T03:20:06.498Z,9.90
2023-03-13T03:22:33.029Z,9.77
2023-03-13T03:25:04.923Z,7.82
2023-03-13T03:27:31.429Z,8.13
2023-03-13T03:30:04.409Z,6.10
2023-03-13T03:32:34.575Z,9.50
2023-03-13T03:35:01.090Z,5.28
2023-03-13T03:37:27.605Z,5.15
2023-03-13T03:39:59.122Z,4.50
2023-03-13T03:42:29.348Z,5.40
2023-03-13T03:44:55.969Z,5.85
2023-03-13T03:47:22.652Z,6.35
2023-03-13T03:49:51.364Z,6.93
2023-03-13T03:52:17.918Z,6.93
2023-03-13T03:54:45.694Z,5.45
2023-03-13T03:57:16.536Z,7.32
2023-03-13T03:59:43.020Z,8.70
2023-03-13T04:02:18.561Z,5.18
2023-03-13T04:04:55.687Z,7.00
2023-03-13T04:07:22.324Z,4.88
2023-03-13T04:09:48.890Z,5.70
2023-03-13T04:12:15.386Z,8.57
2023-03-13T04:14:41.852Z,4.10
2023-03-13T04:17:12.752Z,6.05
2023-03-13T04:19:39.366Z,7.32
2023-03-13T04:22:07.064Z,7.18
2023-03-13T04:24:33.674Z,6.53
2023-03-13T04:27:00.271Z,9.38
2023-03-13T04:29:28.089Z,7.82
2023-03-13T04:31:54.717Z,7.53
2023-03-13T04:34:21.315Z,9.07
2023-03-13T04:36:47.850Z,6.80
2023-03-13T04:39:14.329Z,9.02
2023-03-13T04:41:40.845Z,8.48
2023-03-13T04:44:07.609Z,8.02
2023-03-13T04:46:37.410Z,6.68
2023-03-13T04:49:03.980Z,15.68
2023-03-13T04:51:38.323Z,11.48
2023-03-13T04:54:04.928Z,12.20
2023-03-13T04:56:42.827Z,12.00
2023-03-13T04:59:19.543Z,12.32
2023-03-13T05:01:46.204Z,12.02
2023-03-13T05:04:18.420Z,12.13
2023-03-13T05:06:46.142Z,9.18
2023-03-13T05:09:12.650Z,8.07
2023-03-13T05:11:39.145Z,17.48
2023-03-13T05:14:10.634Z,11.45
2023-03-13T05:16:48.942Z,9.15
2023-03-13T05:19:16.151Z,9.88
2023-03-13T05:21:44.728Z,10.15
2023-03-13T05:24:17.713Z,10.77
2023-03-13T05:26:44.475Z,9.65
2023-03-13T05:29:11.018Z,14.52
2023-03-13T05:31:37.647Z,10.07
2023-03-13T05:34:07.975Z,7.68
2023-03-13T05:36:39.618Z,12.52
2023-03-13T05:39:14.115Z,8.75
2023-03-13T05:41:40.671Z,7.78
2023-03-13T05:44:07.157Z,6.82
2023-03-13T05:46:37.597Z,7.22
2023-03-13T05:49:04.150Z,12.68
2023-03-13T05:51:30.607Z,8.77
2023-03-13T05:53:57.087Z,9.20
2023-03-13T05:56:24.906Z,9.55
2023-03-13T05:58:51.416Z,8.55
2023-03-13T06:01:17.923Z,8.45
2023-03-13T06:03:51.384Z,9.98
2023-03-13T06:06:18.767Z,10.60
2023-03-13T06:08:46.205Z,10.95
2023-03-13T06:11:12.755Z,9.05
2023-03-13T06:13:39.250Z,10.40
2023-03-13T06:16:12.102Z,8.65
2023-03-13T06:18:38.625Z,13.93
2023-03-13T06:21:05.209Z,13.05
2023-03-13T06:23:31.678Z,9.57
2023-03-13T06:25:58.182Z,10.00
2023-03-13T06:28:24.949Z,12.27
2023-03-13T06:30:51.491Z,14.95
2023-03-13T06:33:18.078Z,12.25
2023-03-13T06:35:55.655Z,11.98
2023-03-13T06:38:24.922Z,11.60
2023-03-13T06:40:51.941Z,13.25
2023-03-13T06:43:18.904Z,15.02
2023-03-13T06:45:49.154Z,12.70
2023-03-13T06:48:23.714Z,9.50
2023-03-13T06:53:18.097Z,11.23
2023-03-13T06:55:44.996Z,11.95
2023-03-13T06:58:21.789Z,13.98
2023-03-13T07:00:55.683Z,11.77
2023-03-13T07:03:31.038Z,11.38
2023-03-13T07:05:58.121Z,13.85
2023-03-13T07:08:24.773Z,15.13
2023-03-13T07:11:01.827Z,15.02
2023-03-13T07:13:28.549Z,11.50
2023-03-13T07:15:59.852Z,11.13
2023-03-13T07:18:26.694Z,16.02
2023-03-13T07:20:57.057Z,16.02
2023-03-13T07:23:25.009Z,12.70
2023-03-13T07:25:58.878Z,13.45
2023-03-13T07:28:26.236Z,14.23
2023-03-13T07:30:53.577Z,13.95
2023-03-13T07:33:20.087Z,15.48
2023-03-13T07:35:50.021Z,18.40
2023-03-13T07:38:16.466Z,15.27
2023-03-13T07:40:53.461Z,11.52
2023-03-13T07:43:20.571Z,11.85
2023-03-13T07:46:14.581Z,15.65
2023-03-13T07:48:42.502Z,13.30
2023-03-13T07:51:12.330Z,14.52
2023-03-13T07:53:42.990Z,15.48
2023-03-13T07:56:13.400Z,16.08
2023-03-13T07:58:46.386Z,13.35
2023-03-13T08:01:14.936Z,16.25
2023-03-13T08:03:47.857Z,17.02
2023-03-13T08:06:15.701Z,19.42
2023-03-13T08:08:42.228Z,13.90
2023-03-13T08:11:13.882Z,18.90
2023-03-13T08:13:41.639Z,16.88
2023-03-13T08:16:16.042Z,16.77
2023-03-13T08:18:43.742Z,15.02
2023-03-13T08:21:20.604Z,20.25
2023-03-13T08:23:47.434Z,19.15
2023-03-13T08:26:18.904Z,17.77
2023-03-13T08:28:46.253Z,20.20
2023-03-13T08:31:14.722Z,18.17
2023-03-13T08:33:47.082Z,16.13
2023-03-13T08:36:16.365Z,17.85
2023-03-13T08:38:54.931Z,16.00
2023-03-13T08:41:23.177Z,15.93
2023-03-13T08:43:51.904Z,16.05
2023-03-13T08:46:19.726Z,13.52
2023-03-13T08:48:54.993Z,16.80
2023-03-13T08:51:23.096Z,12.43
2023-03-13T08:53:54.896Z,12.43
2023-03-13T08:56:22.648Z,12.45
2023-03-13T08:58:50.028Z,13.38
2023-03-13T09:01:19.157Z,13.32
2023-03-13T09:03:45.730Z,15.82
2023-03-13T09:06:12.485Z,14.15
2023-03-13T09:08:39.601Z,14.52
2023-03-13T09:11:10.936Z,15.25
2023-03-13T09:13:39.000Z,12.10
2023-03-13T09:16:07.876Z,14.13
2023-03-13T09:18:34.778Z,11.93
2023-03-13T09:21:01.807Z,13.05
2023-03-13T09:23:28.579Z,10.05
2023-03-13T09:25:56.769Z,9.32
2023-03-13T09:31:05.924Z,12.25
2023-03-13T09:33:32.428Z,10.82
2023-03-13T09:35:59.051Z,12.13
2023-03-13T09:38:28.114Z,11.45
2023-03-13T09:41:05.693Z,12.60
2023-03-13T09:43:32.655Z,9.60
2023-03-13T09:46:06.737Z,12.23
2023-03-13T09:48:43.339Z,10.95
2023-03-13T09:51:18.727Z,13.32
2023-03-13T09:53:53.854Z,13.88
2023-03-13T09:56:28.001Z,12.00
2023-03-13T09:58:59.310Z,13.15
2023-03-13T10:01:30.025Z,12.90
2023-03-13T10:04:13.212Z,13.73
2023-03-13T10:06:48.844Z,12.93
2023-03-13T10:09:19.426Z,9.88
2023-03-13T10:11:52.028Z,12.55
2023-03-13T10:14:26.965Z,10.20
2023-03-13T10:16:59.213Z,13.38
2023-03-13T10:19:32.804Z,11.82
2023-03-13T10:22:02.350Z,12.27
2023-03-13T10:24:41.745Z,11.90
2023-03-13T10:27:12.433Z,12.05
2023-03-13T10:29:39.020Z,14.52
2023-03-13T10:32:06.949Z,12.63
2023-03-13T10:34:52.213Z,10.80
2023-03-13T10:37:24.006Z,14.60
2023-03-13T10:39:51.700Z,10.35
2023-03-13T10:42:28.507Z,10.52
2023-03-13T10:45:05.402Z,13.02
2023-03-13T10:47:35.568Z,11.02
2023-03-13T10:50:02.466Z,14.80
2023-03-13T10:52:31.353Z,12.02
2023-03-13T10:55:10.348Z,11.13
2023-03-13T10:57:37.453Z,11.25
2023-03-13T11:00:23.778Z,11.55
2023-03-13T11:02:55.875Z,10.73
2023-03-13T11:05:25.923Z,10.52
2023-03-13T11:07:52.751Z,12.90
2023-03-13T11:10:26.682Z,10.65
2023-03-13T11:12:54.645Z,9.77
2023-03-13T11:15:21.173Z,9.20
2023-03-13T11:17:51.601Z,11.10
2023-03-13T11:20:28.953Z,13.27
2023-03-13T11:23:07.656Z,10.50
2023-03-13T11:25:43.794Z,8.43
2023-03-13T11:28:33.718Z,8.98
2023-03-13T11:31:26.352Z,9.77
2023-03-13T11:33:53.790Z,8.38
2023-03-13T11:36:37.338Z,8.65
2023-03-13T11:39:36.327Z,9.47
2023-03-13T11:42:09.445Z,9.25
2023-03-13T11:44:58.962Z,7.50
2023-03-13T11:47:37.450Z,7.55
2023-03-13T11:50:26.017Z,8.07
2023-03-13T11:52:58.501Z,8.80
2023-03-13T11:55:43.850Z,7.68
2023-03-13T11:58:10.437Z,11.65
2023-03-13T12:00:41.164Z,7.55
2023-03-13T12:03:26.655Z,10.20
2023-03-13T12:05:55.984Z,6.07
2023-03-13T12:08:36.379Z,7.97
2023-03-13T12:11:22.565Z,7.38
2023-03-13T12:14:01.243Z,7.25
2023-03-13T12:17:03.560Z,9.10
2023-03-13T12:19:37.267Z,8.38
2023-03-13T12:22:11.253Z,6.30
2023-03-13T12:27:24.971Z,9.45
2023-03-13T12:30:22.099Z,7.43
2023-03-13T12:33:15.035Z,7.72
2023-03-13T12:35:44.795Z,8.52
2023-03-13T12:38:30.753Z,6.63
2023-03-13T12:41:39.671Z,10.25
2023-03-13T12:44:09.647Z,6.95
2023-03-13T12:46:55.145Z,7.15
2023-03-13T12:49:40.401Z,9.50
2023-03-13T12:52:09.110Z,7.72
2023-03-13T12:54:48.798Z,7.68
2023-03-13T12:57:29.206Z,7.93
2023-03-13T12:59:58.456Z,8.60
2023-03-13T13:02:27.547Z,7.38
2023-03-13T13:04:55.518Z,7.10
2023-03-13T13:07:29.196Z,6.75
2023-03-13T13:10:25.176Z,6.78
2023-03-13T13:13:22.362Z,6.70
2023-03-13T13:15:59.743Z,7.35
2023-03-13T13:18:28.147Z,7.18
2023-03-13T13:21:03.656Z,7.78
2023-03-13T13:23:34.986Z,6.68
2023-03-13T13:26:20.490Z,5.18
2023-03-13T13:28:47.014Z,7.32
2023-03-13T13:31:32.443Z,7.85
2023-03-13T13:34:00.199Z,7.03
2023-03-13T13:36:28.100Z,8.45
2023-03-13T13:38:55.334Z,7.35
2023-03-13T13:41:37.189Z,7.05
2023-03-13T13:44:26.935Z,6.90
2023-03-13T13:47:01.352Z,7.88
2023-03-13T13:49:38.856Z,6.57
2023-03-13T13:52:08.633Z,8.20
2023-03-13T13:54:43.975Z,8.48
2023-03-13T13:57:27.252Z,8.75
2023-03-13T14:00:18.356Z,7.18
2023-03-13T14:02:49.405Z,8.20
2023-03-13T14:05:17.863Z,7.03
2023-03-13T14:07:57.164Z,6.50
2023-03-13T14:10:33.996Z,8.93
2023-03-13T14:13:07.468Z,7.05
2023-03-13T14:15:35.392Z,9.98
2023-03-13T14:18:12.800Z,6.68
2023-03-13T14:20:40.875Z,7.72
2023-03-13T14:23:11.627Z,8.20
2023-03-13T14:25:43.939Z,8.00
2023-03-13T14:28:16.460Z,8.43
2023-03-13T14:30:46.885Z,9.20
2023-03-13T14:33:20.171Z,7.68
2023-03-13T14:35:47.450Z,8.03
2023-03-13T14:38:21.454Z,6.70
2023-03-13T14:40:48.282Z,9.05
2023-03-13T14:43:39.611Z,8.32
2023-03-13T14:46:35.619Z,7.85
